sensor_id;sensor_type;location;lat;lon;timestamp;temperature;humidity
67752;DHT22;54551;51.068;5.826;2023-02-15T00:02:10;3.60;99.90
67752;DHT22;54551;51.068;5.826;2023-02-15T00:05:26;3.60;99.90
67752;DHT22;54551;51.068;5.826;2023-02-15T00:08:06;3.60;99.90
67752;DHT22;54551;51.068;5.826;2023-02-15T00:10:51;3.50;99.90
67752;DHT22;54551;51.068;5.826;2023-02-15T00:13:50;3.50;99.90
67752;DHT22;54551;51.068;5.826;2023-02-15T00:16:54;3.40;99.90
67752;DHT22;54551;51.068;5.826;2023-02-15T00:19:35;3.30;99.90
67752;DHT22;54551;51.068;5.826;2023-02-15T00:22:07;3.30;99.90
67752;DHT22;54551;51.068;5.826;2023-02-15T00:24:49;3.30;99.90
67752;DHT22;54551;51.068;5.826;2023-02-15T00:27:23;3.30;99.90
67752;DHT22;54551;51.068;5.826;2023-02-15T00:30:02;3.30;99.90
67752;DHT22;54551;51.068;5.826;2023-02-15T00:32:50;3.30;99.90
67752;DHT22;54551;51.068;5.826;2023-02-15T00:35:25;3.30;99.90
67752;DHT22;54551;51.068;5.826;2023-02-15T00:37:56;3.20;99.90
67752;DHT22;54551;51.068;5.826;2023-02-15T00:40:38;3.20;99.90
67752;DHT22;54551;51.068;5.826;2023-02-15T00:43:12;3.20;99.90
67752;DHT22;54551;51.068;5.826;2023-02-15T00:46:11;3.20;99.90
67752;DHT22;54551;51.068;5.826;2023-02-15T00:49:22;3.00;99.90
67752;DHT22;54551;51.068;5.826;2023-02-15T00:51:49;2.90;99.90
67752;DHT22;54551;51.068;5.826;2023-02-15T00:54:42;2.80;99.90
67752;DHT22;54551;51.068;5.826;2023-02-15T00:57:31;2.80;99.90
67752;DHT22;54551;51.068;5.826;2023-02-15T01:00:26;2.70;99.90
67752;DHT22;54551;51.068;5.826;2023-02-15T01:03:09;2.70;99.90
67752;DHT22;54551;51.068;5.826;2023-02-15T01:05:41;2.70;99.90
67752;DHT22;54551;51.068;5.826;2023-02-15T01:08:18;2.60;99.90
67752;DHT22;54551;51.068;5.826;2023-02-15T01:10:46;2.60;99.90
67752;DHT22;54551;51.068;5.826;2023-02-15T01:13:44;2.60;99.90
67752;DHT22;54551;51.068;5.826;2023-02-15T01:18:59;2.60;99.90
67752;DHT22;54551;51.068;5.826;2023-02-15T01:22:22;2.60;99.90
67752;DHT22;54551;51.068;5.826;2023-02-15T01:25:07;2.60;99.90
67752;DHT22;54551;51.068;5.826;2023-02-15T01:27:48;2.60;99.90
67752;DHT22;54551;51.068;5.826;2023-02-15T01:30:42;2.60;99.90
67752;DHT22;54551;51.068;5.826;2023-02-15T01:33:14;2.60;99.90
67752;DHT22;54551;51.068;5.826;2023-02-15T01:36:10;2.60;99.90
67752;DHT22;54551;51.068;5.826;2023-02-15T01:39:00;2.50;99.90
67752;DHT22;54551;51.068;5.826;2023-02-15T01:42:46;2.50;99.90
67752;DHT22;54551;51.068;5.826;2023-02-15T01:45:44;2.50;99.90
67752;DHT22;54551;51.068;5.826;2023-02-15T01:48:30;2.50;99.90
67752;DHT22;54551;51.068;5.826;2023-02-15T01:55:03;2.40;99.90
67752;DHT22;54551;51.068;5.826;2023-02-15T01:57:42;2.40;99.90
67752;DHT22;54551;51.068;5.826;2023-02-15T02:00:33;2.40;99.90
67752;DHT22;54551;51.068;5.826;2023-02-15T02:03:49;2.40;99.90
67752;DHT22;54551;51.068;5.826;2023-02-15T02:06:26;2.30;99.90
67752;DHT22;54551;51.068;5.826;2023-02-15T02:09:00;2.30;99.90
67752;DHT22;54551;51.068;5.826;2023-02-15T02:11:32;2.30;99.90
67752;DHT22;54551;51.068;5.826;2023-02-15T02:14:15;2.20;99.90
67752;DHT22;54551;51.068;5.826;2023-02-15T02:24:08;2.20;99.90
67752;DHT22;54551;51.068;5.826;2023-02-15T02:30:30;2.20;99.90
67752;DHT22;54551;51.068;5.826;2023-02-15T02:33:34;2.20;99.90
67752;DHT22;54551;51.068;5.826;2023-02-15T02:39:56;2.20;99.90
67752;DHT22;54551;51.068;5.826;2023-02-15T02:42:53;2.10;99.90
67752;DHT22;54551;51.068;5.826;2023-02-15T02:45:33;2.00;99.90
67752;DHT22;54551;51.068;5.826;2023-02-15T02:48:35;1.90;99.90
67752;DHT22;54551;51.068;5.826;2023-02-15T02:51:18;1.90;99.90
67752;DHT22;54551;51.068;5.826;2023-02-15T02:54:02;1.90;99.90
67752;DHT22;54551;51.068;5.826;2023-02-15T02:57:04;1.90;99.90
67752;DHT22;54551;51.068;5.826;2023-02-15T02:59:54;1.80;99.90
67752;DHT22;54551;51.068;5.826;2023-02-15T03:02:32;1.80;99.90
67752;DHT22;54551;51.068;5.826;2023-02-15T03:05:19;1.80;99.90
67752;DHT22;54551;51.068;5.826;2023-02-15T03:08:01;1.80;99.90
67752;DHT22;54551;51.068;5.826;2023-02-15T03:10:40;1.90;99.90
67752;DHT22;54551;51.068;5.826;2023-02-15T03:13:17;1.90;99.90
67752;DHT22;54551;51.068;5.826;2023-02-15T03:16:14;1.90;99.90
67752;DHT22;54551;51.068;5.826;2023-02-15T03:19:22;1.90;99.90
67752;DHT22;54551;51.068;5.826;2023-02-15T03:22:14;1.90;99.90
67752;DHT22;54551;51.068;5.826;2023-02-15T03:25:20;1.80;99.90
67752;DHT22;54551;51.068;5.826;2023-02-15T03:28:31;1.80;99.90
67752;DHT22;54551;51.068;5.826;2023-02-15T03:31:20;1.80;99.90
67752;DHT22;54551;51.068;5.826;2023-02-15T03:34:41;1.80;99.90
67752;DHT22;54551;51.068;5.826;2023-02-15T03:37:38;1.70;99.90
67752;DHT22;54551;51.068;5.826;2023-02-15T03:50:15;1.60;99.90
67752;DHT22;54551;51.068;5.826;2023-02-15T03:53:11;1.60;99.90
67752;DHT22;54551;51.068;5.826;2023-02-15T03:55:49;1.60;99.90
67752;DHT22;54551;51.068;5.826;2023-02-15T03:58:32;1.50;99.90
67752;DHT22;54551;51.068;5.826;2023-02-15T04:04:45;1.50;99.90
67752;DHT22;54551;51.068;5.826;2023-02-15T04:07:38;1.50;99.90
67752;DHT22;54551;51.068;5.826;2023-02-15T04:10:36;1.50;99.90
67752;DHT22;54551;51.068;5.826;2023-02-15T04:13:40;1.50;99.90
67752;DHT22;54551;51.068;5.826;2023-02-15T04:16:18;1.50;99.90
67752;DHT22;54551;51.068;5.826;2023-02-15T04:19:04;1.40;99.90
67752;DHT22;54551;51.068;5.826;2023-02-15T04:22:17;1.50;99.90
67752;DHT22;54551;51.068;5.826;2023-02-15T04:25:22;1.50;99.90
67752;DHT22;54551;51.068;5.826;2023-02-15T04:28:07;1.40;99.90
67752;DHT22;54551;51.068;5.826;2023-02-15T04:30:49;1.40;99.90
67752;DHT22;54551;51.068;5.826;2023-02-15T04:33:28;1.40;99.90
67752;DHT22;54551;51.068;5.826;2023-02-15T04:36:16;1.30;99.90
67752;DHT22;54551;51.068;5.826;2023-02-15T04:39:24;1.30;99.90
67752;DHT22;54551;51.068;5.826;2023-02-15T04:41:58;1.30;99.90
67752;DHT22;54551;51.068;5.826;2023-02-15T04:44:37;1.40;99.90
67752;DHT22;54551;51.068;5.826;2023-02-15T04:47:39;1.40;99.90
67752;DHT22;54551;51.068;5.826;2023-02-15T04:50:44;1.40;99.90
67752;DHT22;54551;51.068;5.826;2023-02-15T04:53:28;1.50;99.90
67752;DHT22;54551;51.068;5.826;2023-02-15T04:56:15;1.50;99.90
67752;DHT22;54551;51.068;5.826;2023-02-15T04:59:12;1.50;99.90
67752;DHT22;54551;51.068;5.826;2023-02-15T05:02:06;1.40;99.90
67752;DHT22;54551;51.068;5.826;2023-02-15T05:05:05;1.40;99.90
67752;DHT22;54551;51.068;5.826;2023-02-15T05:07:48;1.40;99.90
67752;DHT22;54551;51.068;5.826;2023-02-15T05:10:48;1.40;99.90
67752;DHT22;54551;51.068;5.826;2023-02-15T05:13:24;1.20;99.90
67752;DHT22;54551;51.068;5.826;2023-02-15T05:16:00;1.30;99.90
67752;DHT22;54551;51.068;5.826;2023-02-15T05:19:04;1.30;99.90
67752;DHT22;54551;51.068;5.826;2023-02-15T05:21:33;1.30;99.90
67752;DHT22;54551;51.068;5.826;2023-02-15T05:24:36;1.30;99.90
67752;DHT22;54551;51.068;5.826;2023-02-15T05:27:32;1.30;99.90
67752;DHT22;54551;51.068;5.826;2023-02-15T05:30:51;1.30;99.90
67752;DHT22;54551;51.068;5.826;2023-02-15T05:33:48;1.30;99.90
67752;DHT22;54551;51.068;5.826;2023-02-15T05:36:37;1.30;99.90
67752;DHT22;54551;51.068;5.826;2023-02-15T05:39:42;1.40;99.90
67752;DHT22;54551;51.068;5.826;2023-02-15T05:42:39;1.40;99.90
67752;DHT22;54551;51.068;5.826;2023-02-15T05:45:59;1.40;99.90
67752;DHT22;54551;51.068;5.826;2023-02-15T05:49:14;1.40;99.90
67752;DHT22;54551;51.068;5.826;2023-02-15T05:52:10;1.40;99.90
67752;DHT22;54551;51.068;5.826;2023-02-15T05:58:53;1.40;99.90
67752;DHT22;54551;51.068;5.826;2023-02-15T06:02:09;1.30;99.90
67752;DHT22;54551;51.068;5.826;2023-02-15T06:05:06;1.30;99.90
67752;DHT22;54551;51.068;5.826;2023-02-15T06:07:43;1.20;99.90
67752;DHT22;54551;51.068;5.826;2023-02-15T06:13:47;1.20;99.90
67752;DHT22;54551;51.068;5.826;2023-02-15T06:17:11;1.20;99.90
67752;DHT22;54551;51.068;5.826;2023-02-15T06:20:23;1.20;99.90
67752;DHT22;54551;51.068;5.826;2023-02-15T06:23:05;1.10;99.90
67752;DHT22;54551;51.068;5.826;2023-02-15T06:25:36;1.10;99.90
67752;DHT22;54551;51.068;5.826;2023-02-15T06:28:13;1.10;99.90
67752;DHT22;54551;51.068;5.826;2023-02-15T06:30:47;1.10;99.90
67752;DHT22;54551;51.068;5.826;2023-02-15T06:33:20;1.10;99.90
67752;DHT22;54551;51.068;5.826;2023-02-15T06:35:50;1.10;99.90
67752;DHT22;54551;51.068;5.826;2023-02-15T06:42:52;1.10;99.90
67752;DHT22;54551;51.068;5.826;2023-02-15T06:45:28;1.10;99.90
67752;DHT22;54551;51.068;5.826;2023-02-15T06:48:00;1.00;99.90
67752;DHT22;54551;51.068;5.826;2023-02-15T06:50:50;1.00;99.90
67752;DHT22;54551;51.068;5.826;2023-02-15T06:53:36;1.00;99.90
67752;DHT22;54551;51.068;5.826;2023-02-15T06:56:45;1.10;99.90
67752;DHT22;54551;51.068;5.826;2023-02-15T06:59:41;1.10;99.90
67752;DHT22;54551;51.068;5.826;2023-02-15T07:03:17;1.20;99.90
67752;DHT22;54551;51.068;5.826;2023-02-15T07:14:20;1.30;99.90
67752;DHT22;54551;51.068;5.826;2023-02-15T07:18:12;1.40;99.90
67752;DHT22;54551;51.068;5.826;2023-02-15T07:26:32;1.50;99.90
67752;DHT22;54551;51.068;5.826;2023-02-15T07:34:23;1.70;99.90
67752;DHT22;54551;51.068;5.826;2023-02-15T07:37:10;1.80;99.90
67752;DHT22;54551;51.068;5.826;2023-02-15T07:40:10;1.90;99.90
67752;DHT22;54551;51.068;5.826;2023-02-15T07:43:16;2.10;99.90
67752;DHT22;54551;51.068;5.826;2023-02-15T07:50:16;2.90;99.90
67752;DHT22;54551;51.068;5.826;2023-02-15T07:53:38;3.60;99.90
67752;DHT22;54551;51.068;5.826;2023-02-15T07:57:15;4.50;99.90
67752;DHT22;54551;51.068;5.826;2023-02-15T08:00:17;6.00;99.90
67752;DHT22;54551;51.068;5.826;2023-02-15T08:03:28;7.30;99.90
67752;DHT22;54551;51.068;5.826;2023-02-15T08:06:53;8.40;99.90
67752;DHT22;54551;51.068;5.826;2023-02-15T08:10:19;9.50;99.90
67752;DHT22;54551;51.068;5.826;2023-02-15T08:17:55;12.00;99.90
67752;DHT22;54551;51.068;5.826;2023-02-15T08:24:55;13.40;99.90
67752;DHT22;54551;51.068;5.826;2023-02-15T08:28:42;13.90;99.90
67752;DHT22;54551;51.068;5.826;2023-02-15T08:32:07;14.40;99.90
67752;DHT22;54551;51.068;5.826;2023-02-15T08:36:08;15.00;99.90
67752;DHT22;54551;51.068;5.826;2023-02-15T08:39:54;15.10;99.90
67752;DHT22;54551;51.068;5.826;2023-02-15T08:43:14;15.20;99.90
67752;DHT22;54551;51.068;5.826;2023-02-15T08:49:45;14.40;99.90
67752;DHT22;54551;51.068;5.826;2023-02-15T08:53:16;14.10;99.90
67752;DHT22;54551;51.068;5.826;2023-02-15T08:57:01;14.10;99.90
67752;DHT22;54551;51.068;5.826;2023-02-15T09:00:51;14.00;99.90
67752;DHT22;54551;51.068;5.826;2023-02-15T09:04:07;14.30;99.90
67752;DHT22;54551;51.068;5.826;2023-02-15T09:07:18;14.40;99.90
67752;DHT22;54551;51.068;5.826;2023-02-15T09:10:37;14.50;99.90
67752;DHT22;54551;51.068;5.826;2023-02-15T09:13:51;14.20;99.90
67752;DHT22;54551;51.068;5.826;2023-02-15T09:17:32;14.00;99.90
67752;DHT22;54551;51.068;5.826;2023-02-15T09:24:20;14.10;99.90
67752;DHT22;54551;51.068;5.826;2023-02-15T09:30:50;13.80;99.90
67752;DHT22;54551;51.068;5.826;2023-02-15T09:33:27;14.00;99.90
67752;DHT22;54551;51.068;5.826;2023-02-15T09:44:01;14.30;99.90
67752;DHT22;54551;51.068;5.826;2023-02-15T10:07:18;16.10;99.90
67752;DHT22;54551;51.068;5.826;2023-02-15T10:26:46;16.40;99.90
67752;DHT22;54551;51.068;5.826;2023-02-15T10:30:03;16.50;99.90
67752;DHT22;54551;51.068;5.826;2023-02-15T10:33:16;16.50;99.90
67752;DHT22;54551;51.068;5.826;2023-02-15T10:57:00;16.30;99.90
67752;DHT22;54551;51.068;5.826;2023-02-15T11:12:20;16.70;99.90
67752;DHT22;54551;51.068;5.826;2023-02-15T11:23:29;17.80;99.90
67752;DHT22;54551;51.068;5.826;2023-02-15T11:38:36;20.30;95.80
67752;DHT22;54551;51.068;5.826;2023-02-15T11:41:46;20.00;95.00
67752;DHT22;54551;51.068;5.826;2023-02-15T11:45:34;19.80;94.90
67752;DHT22;54551;51.068;5.826;2023-02-15T11:48:45;19.50;95.70
67752;DHT22;54551;51.068;5.826;2023-02-15T11:51:39;19.20;95.10
67752;DHT22;54551;51.068;5.826;2023-02-15T11:54:10;19.00;95.10
67752;DHT22;54551;51.068;5.826;2023-02-15T11:57:53;18.80;94.90
67752;DHT22;54551;51.068;5.826;2023-02-15T12:00:52;18.40;96.30
67752;DHT22;54551;51.068;5.826;2023-02-15T12:03:48;18.10;96.30
67752;DHT22;54551;51.068;5.826;2023-02-15T12:14:21;17.30;97.30
67752;DHT22;54551;51.068;5.826;2023-02-15T12:17:51;17.30;97.90
67752;DHT22;54551;51.068;5.826;2023-02-15T12:20:48;17.50;97.60
67752;DHT22;54551;51.068;5.826;2023-02-15T12:27:15;17.90;96.90
67752;DHT22;54551;51.068;5.826;2023-02-15T12:33:50;17.80;98.10
67752;DHT22;54551;51.068;5.826;2023-02-15T12:37:23;18.00;96.90
67752;DHT22;54551;51.068;5.826;2023-02-15T12:40:41;18.10;96.60
67752;DHT22;54551;51.068;5.826;2023-02-15T12:44:15;18.00;96.00
67752;DHT22;54551;51.068;5.826;2023-02-15T12:47:27;18.10;96.10
67752;DHT22;54551;51.068;5.826;2023-02-15T12:50:46;18.30;96.30
67752;DHT22;54551;51.068;5.826;2023-02-15T12:56:59;18.70;96.10
67752;DHT22;54551;51.068;5.826;2023-02-15T13:00:05;18.90;95.60
67752;DHT22;54551;51.068;5.826;2023-02-15T13:02:46;19.00;95.50
67752;DHT22;54551;51.068;5.826;2023-02-15T13:08:19;19.80;93.20
67752;DHT22;54551;51.068;5.826;2023-02-15T13:11:15;19.90;93.60
67752;DHT22;54551;51.068;5.826;2023-02-15T13:14:03;20.10;93.70
67752;DHT22;54551;51.068;5.826;2023-02-15T13:16:53;20.50;92.50
67752;DHT22;54551;51.068;5.826;2023-02-15T13:20:05;20.90;92.10
67752;DHT22;54551;51.068;5.826;2023-02-15T13:22:58;21.30;91.30
67752;DHT22;54551;51.068;5.826;2023-02-15T13:28:44;21.20;91.00
67752;DHT22;54551;51.068;5.826;2023-02-15T13:31:28;21.20;88.90
67752;DHT22;54551;51.068;5.826;2023-02-15T13:34:12;21.00;88.90
67752;DHT22;54551;51.068;5.826;2023-02-15T13:37:11;20.80;90.20
67752;DHT22;54551;51.068;5.826;2023-02-15T13:42:29;20.50;91.00
67752;DHT22;54551;51.068;5.826;2023-02-15T13:51:23;19.90;92.60
67752;DHT22;54551;51.068;5.826;2023-02-15T13:54:33;20.00;91.90
67752;DHT22;54551;51.068;5.826;2023-02-15T14:06:43;19.00;93.20
67752;DHT22;54551;51.068;5.826;2023-02-15T14:09:40;18.80;93.40
67752;DHT22;54551;51.068;5.826;2023-02-15T14:12:40;18.80;93.70
67752;DHT22;54551;51.068;5.826;2023-02-15T14:17:51;18.70;94.50
67752;DHT22;54551;51.068;5.826;2023-02-15T14:20:43;18.60;94.10
67752;DHT22;54551;51.068;5.826;2023-02-15T14:23:48;18.60;94.50
67752;DHT22;54551;51.068;5.826;2023-02-15T14:29:41;18.40;95.10
67752;DHT22;54551;51.068;5.826;2023-02-15T14:32:54;18.40;95.50
67752;DHT22;54551;51.068;5.826;2023-02-15T14:35:30;18.50;95.70
67752;DHT22;54551;51.068;5.826;2023-02-15T14:38:15;18.70;95.20
67752;DHT22;54551;51.068;5.826;2023-02-15T14:49:56;17.90;95.10
67752;DHT22;54551;51.068;5.826;2023-02-15T14:52:25;17.70;95.30
67752;DHT22;54551;51.068;5.826;2023-02-15T14:55:00;17.40;95.70
67752;DHT22;54551;51.068;5.826;2023-02-15T14:57:34;17.20;95.60
67752;DHT22;54551;51.068;5.826;2023-02-15T15:00:05;17.00;96.00
67752;DHT22;54551;51.068;5.826;2023-02-15T15:03:20;16.80;96.40
67752;DHT22;54551;51.068;5.826;2023-02-15T15:05:58;16.50;97.00
67752;DHT22;54551;51.068;5.826;2023-02-15T15:08:41;16.40;97.50
67752;DHT22;54551;51.068;5.826;2023-02-15T15:11:39;16.30;98.10
67752;DHT22;54551;51.068;5.826;2023-02-15T15:14:09;16.10;98.90
67752;DHT22;54551;51.068;5.826;2023-02-15T15:22:41;15.70;99.90
67752;DHT22;54551;51.068;5.826;2023-02-15T15:31:35;15.30;99.90
67752;DHT22;54551;51.068;5.826;2023-02-15T15:34:51;15.20;99.90
67752;DHT22;54551;51.068;5.826;2023-02-15T15:37:55;15.10;99.90
67752;DHT22;54551;51.068;5.826;2023-02-15T15:58:11;14.30;99.90
67752;DHT22;54551;51.068;5.826;2023-02-15T16:01:08;14.10;99.90
67752;DHT22;54551;51.068;5.826;2023-02-15T16:03:53;13.90;99.90
67752;DHT22;54551;51.068;5.826;2023-02-15T16:06:55;13.80;99.90
67752;DHT22;54551;51.068;5.826;2023-02-15T16:10:03;13.70;99.90
67752;DHT22;54551;51.068;5.826;2023-02-15T16:12:40;13.60;99.90
67752;DHT22;54551;51.068;5.826;2023-02-15T16:16:11;13.50;99.90
67752;DHT22;54551;51.068;5.826;2023-02-15T16:19:06;13.40;99.90
67752;DHT22;54551;51.068;5.826;2023-02-15T16:21:51;13.30;99.90
67752;DHT22;54551;51.068;5.826;2023-02-15T16:30:33;13.00;99.90
67752;DHT22;54551;51.068;5.826;2023-02-15T16:36:45;12.90;99.90
67752;DHT22;54551;51.068;5.826;2023-02-15T16:42:55;12.70;99.90
67752;DHT22;54551;51.068;5.826;2023-02-15T16:45:51;12.60;99.90
67752;DHT22;54551;51.068;5.826;2023-02-15T16:48:56;12.50;99.90
67752;DHT22;54551;51.068;5.826;2023-02-15T16:52:10;12.40;99.90
67752;DHT22;54551;51.068;5.826;2023-02-15T16:55:03;12.30;99.90
67752;DHT22;54551;51.068;5.826;2023-02-15T16:57:48;12.10;99.90
67752;DHT22;54551;51.068;5.826;2023-02-15T17:07:21;11.90;99.90
67752;DHT22;54551;51.068;5.826;2023-02-15T17:10:36;11.80;99.90
67752;DHT22;54551;51.068;5.826;2023-02-15T17:14:11;11.70;99.90
67752;DHT22;54551;51.068;5.826;2023-02-15T17:20:31;11.50;99.90
67752;DHT22;54551;51.068;5.826;2023-02-15T17:23:51;11.40;99.90
67752;DHT22;54551;51.068;5.826;2023-02-15T17:26:34;11.30;99.90
67752;DHT22;54551;51.068;5.826;2023-02-15T17:29:02;11.20;99.90
67752;DHT22;54551;51.068;5.826;2023-02-15T17:31:56;11.10;99.90
67752;DHT22;54551;51.068;5.826;2023-02-15T17:43:58;10.90;99.90
67752;DHT22;54551;51.068;5.826;2023-02-15T17:46:51;10.90;99.90
67752;DHT22;54551;51.068;5.826;2023-02-15T17:49:57;10.90;99.90
67752;DHT22;54551;51.068;5.826;2023-02-15T17:52:34;10.80;99.90
67752;DHT22;54551;51.068;5.826;2023-02-15T17:56:38;10.70;99.90
67752;DHT22;54551;51.068;5.826;2023-02-15T18:03:57;10.60;99.90
67752;DHT22;54551;51.068;5.826;2023-02-15T18:07:07;10.50;99.90
67752;DHT22;54551;51.068;5.826;2023-02-15T18:10:16;10.40;99.90
67752;DHT22;54551;51.068;5.826;2023-02-15T18:13:29;10.30;99.90
67752;DHT22;54551;51.068;5.826;2023-02-15T18:16:03;10.30;99.90
67752;DHT22;54551;51.068;5.826;2023-02-15T18:18:51;10.20;99.90
67752;DHT22;54551;51.068;5.826;2023-02-15T18:21:57;10.20;99.90
67752;DHT22;54551;51.068;5.826;2023-02-15T18:24:46;10.10;99.90
67752;DHT22;54551;51.068;5.826;2023-02-15T18:27:28;10.00;99.90
67752;DHT22;54551;51.068;5.826;2023-02-15T18:50:47;9.80;99.90
67752;DHT22;54551;51.068;5.826;2023-02-15T18:54:21;9.70;99.90
67752;DHT22;54551;51.068;5.826;2023-02-15T19:09:42;9.70;99.90
67752;DHT22;54551;51.068;5.826;2023-02-15T19:13:21;9.60;99.90
67752;DHT22;54551;51.068;5.826;2023-02-15T19:16:50;9.60;99.90
67752;DHT22;54551;51.068;5.826;2023-02-15T19:20:03;9.60;99.90
67752;DHT22;54551;51.068;5.826;2023-02-15T19:22:54;9.50;99.90
67752;DHT22;54551;51.068;5.826;2023-02-15T19:25:28;9.50;99.90
67752;DHT22;54551;51.068;5.826;2023-02-15T19:28:28;9.50;99.90
67752;DHT22;54551;51.068;5.826;2023-02-15T19:31:20;9.50;99.90
67752;DHT22;54551;51.068;5.826;2023-02-15T19:33:55;9.50;99.90
67752;DHT22;54551;51.068;5.826;2023-02-15T19:37:05;9.50;99.90
67752;DHT22;54551;51.068;5.826;2023-02-15T19:39:45;9.50;99.90
67752;DHT22;54551;51.068;5.826;2023-02-15T19:42:30;9.40;99.90
67752;DHT22;54551;51.068;5.826;2023-02-15T19:45:26;9.40;99.90
67752;DHT22;54551;51.068;5.826;2023-02-15T19:48:05;9.30;99.90
67752;DHT22;54551;51.068;5.826;2023-02-15T19:50:41;9.30;99.90
67752;DHT22;54551;51.068;5.826;2023-02-15T19:54:09;9.30;99.90
67752;DHT22;54551;51.068;5.826;2023-02-15T19:57:12;9.20;99.90
67752;DHT22;54551;51.068;5.826;2023-02-15T20:00:31;9.20;99.90
67752;DHT22;54551;51.068;5.826;2023-02-15T20:03:43;9.10;99.90
67752;DHT22;54551;51.068;5.826;2023-02-15T20:07:30;9.00;99.90
67752;DHT22;54551;51.068;5.826;2023-02-15T20:14:37;8.90;99.90
67752;DHT22;54551;51.068;5.826;2023-02-15T20:17:37;8.80;99.90
67752;DHT22;54551;51.068;5.826;2023-02-15T20:20:50;8.80;99.90
67752;DHT22;54551;51.068;5.826;2023-02-15T20:24:17;8.80;99.90
67752;DHT22;54551;51.068;5.826;2023-02-15T20:27:26;8.70;99.90
67752;DHT22;54551;51.068;5.826;2023-02-15T20:30:29;8.70;99.90
67752;DHT22;54551;51.068;5.826;2023-02-15T20:34:04;8.70;99.90
67752;DHT22;54551;51.068;5.826;2023-02-15T20:41:04;8.60;99.90
67752;DHT22;54551;51.068;5.826;2023-02-15T20:44:39;8.60;99.90
67752;DHT22;54551;51.068;5.826;2023-02-15T20:47:32;8.60;99.90
67752;DHT22;54551;51.068;5.826;2023-02-15T20:50:47;8.50;99.90
67752;DHT22;54551;51.068;5.826;2023-02-15T20:58:37;8.40;99.90
67752;DHT22;54551;51.068;5.826;2023-02-15T21:11:20;8.20;99.90
67752;DHT22;54551;51.068;5.826;2023-02-15T21:18:25;8.10;99.90
67752;DHT22;54551;51.068;5.826;2023-02-15T21:25:47;8.30;99.90
67752;DHT22;54551;51.068;5.826;2023-02-15T21:28:36;8.30;99.90
67752;DHT22;54551;51.068;5.826;2023-02-15T21:31:48;8.30;99.90
67752;DHT22;54551;51.068;5.826;2023-02-15T21:34:33;8.40;99.90
67752;DHT22;54551;51.068;5.826;2023-02-15T21:38:05;8.40;99.90
67752;DHT22;54551;51.068;5.826;2023-02-15T21:41:23;8.30;99.90
67752;DHT22;54551;51.068;5.826;2023-02-15T21:56:51;8.30;99.90
67752;DHT22;54551;51.068;5.826;2023-02-15T21:59:49;8.30;99.90
67752;DHT22;54551;51.068;5.826;2023-02-15T22:05:50;8.40;99.90
67752;DHT22;54551;51.068;5.826;2023-02-15T22:13:30;8.40;99.90
67752;DHT22;54551;51.068;5.826;2023-02-15T22:16:25;8.40;99.90
67752;DHT22;54551;51.068;5.826;2023-02-15T22:21:54;8.30;99.90
67752;DHT22;54551;51.068;5.826;2023-02-15T22:29:24;8.30;99.90
67752;DHT22;54551;51.068;5.826;2023-02-15T22:32:01;8.20;99.90
67752;DHT22;54551;51.068;5.826;2023-02-15T22:35:28;8.10;99.90
67752;DHT22;54551;51.068;5.826;2023-02-15T22:45:23;7.80;99.90
67752;DHT22;54551;51.068;5.826;2023-02-15T22:49:11;7.80;99.90
67752;DHT22;54551;51.068;5.826;2023-02-15T22:52:17;7.70;99.90
67752;DHT22;54551;51.068;5.826;2023-02-15T22:54:49;7.70;99.90
67752;DHT22;54551;51.068;5.826;2023-02-15T22:58:16;7.70;99.90
67752;DHT22;54551;51.068;5.826;2023-02-15T23:01:08;7.60;99.90
67752;DHT22;54551;51.068;5.826;2023-02-15T23:12:26;7.50;99.90
67752;DHT22;54551;51.068;5.826;2023-02-15T23:15:50;7.50;99.90
67752;DHT22;54551;51.068;5.826;2023-02-15T23:18:57;7.50;99.90
67752;DHT22;54551;51.068;5.826;2023-02-15T23:22:37;7.40;99.90
67752;DHT22;54551;51.068;5.826;2023-02-15T23:34:57;7.30;99.90
67752;DHT22;54551;51.068;5.826;2023-02-15T23:58:19;6.90;99.90
